Time;durP1;ratioP1;P1;durP2;ratioP2;P2;SDS_P1;SDS_P2;PMS_P1;PMS_P2;Temp;Humidity;BMP_temperature;BMP_pressure;BME280_temperature;BME280_humidity;BME280_pressure;Samples;Min_cycle;Max_cycle;Signal;HPM_P1;HPM_P2
2022/04/26 03:36:22;;;;;;;51.50;34.78;;;8.30;99.90;;;;;;7318127;32;20099;-56
2022/04/26 03:40:24;;;;;;;53.30;35.63;;;8.30;99.90;;;;;;7320008;32;21673;-56
2022/04/26 03:44:26;;;;;;;53.83;34.90;;;8.30;99.90;;;;;;7311569;32;20866;-56
2022/04/26 03:48:28;;;;;;;48.55;31.85;;;8.30;99.90;;;;;;7313918;32;20443;-56
2022/04/26 03:52:30;;;;;;;52.00;32.15;;;8.30;99.90;;;;;;7314564;32;20358;-56
2022/04/26 03:56:31;;;;;;;51.85;32.45;;;8.30;99.90;;;;;;7312818;32;20328;-56
2022/04/26 04:00:33;;;;;;;46.42;31.52;;;8.30;99.90;;;;;;7314890;32;20206;-56
2022/04/26 04:04:34;;;;;;;39.17;29.27;;;8.30;99.90;;;;;;7316670;32;20104;-56
2022/04/26 04:08:36;;;;;;;42.88;29.30;;;8.20;99.90;;;;;;7314489;32;20126;-56
2022/04/26 04:12:38;;;;;;;41.08;27.50;;;8.20;99.90;;;;;;7312212;32;20539;-56
2022/04/26 04:16:40;;;;;;;39.60;25.98;;;8.30;99.90;;;;;;7308681;32;20187;-56
2022/04/26 04:20:42;;;;;;;38.30;25.60;;;8.20;99.90;;;;;;7310991;32;20221;-56
2022/04/26 04:24:44;;;;;;;35.92;24.15;;;8.20;99.90;;;;;;7313627;32;20838;-56
2022/04/26 04:28:45;;;;;;;34.80;23.00;;;8.10;99.90;;;;;;7319568;32;20104;-56
2022/04/26 04:32:47;;;;;;;37.88;22.73;;;8.10;99.90;;;;;;7315958;32;20099;-56
2022/04/26 04:36:49;;;;;;;32.05;21.62;;;8.10;99.90;;;;;;7317884;32;20165;-56
2022/04/26 04:40:50;;;;;;;31.67;22.30;;;7.90;99.90;;;;;;7313985;32;20642;-56
2022/04/26 04:44:52;;;;;;;33.88;22.58;;;7.90;99.90;;;;;;7318926;32;20095;-56
2022/04/26 04:48:54;;;;;;;37.72;23.55;;;7.80;99.90;;;;;;7316762;32;20130;-59
2022/04/26 04:52:56;;;;;;;32.25;22.62;;;7.80;99.90;;;;;;7317957;32;20175;-59
2022/04/26 04:56:58;;;;;;;35.78;21.37;;;7.80;99.90;;;;;;7312684;32;20308;-59
2022/04/26 05:01:00;;;;;;;32.88;21.17;;;7.90;99.90;;;;;;7314642;32;20131;-59
2022/04/26 05:05:01;;;;;;;31.00;22.02;;;7.80;99.90;;;;;;7310253;32;20455;-59
2022/04/26 05:09:03;;;;;;;30.35;21.45;;;7.90;99.90;;;;;;7316763;32;20222;-59
2022/04/26 05:13:06;;;;;;;30.27;20.70;;;7.90;99.90;;;;;;7315693;32;20121;-59
2022/04/26 05:17:08;;;;;;;25.60;18.58;;;8.10;99.90;;;;;;7315319;32;20878;-59
2022/04/26 05:21:12;;;;;;;34.80;19.87;;;7.90;99.90;;;;;;7316628;32;20108;-59
2022/04/26 05:25:14;;;;;;;34.13;19.27;;;7.90;99.90;;;;;;7316117;32;20100;-59
2022/04/26 05:29:16;;;;;;;30.05;18.52;;;7.90;99.90;;;;;;7315242;32;20249;-59
2022/04/26 05:33:17;;;;;;;25.60;18.42;;;7.90;99.90;;;;;;7311695;32;20271;-59
2022/04/26 05:37:19;;;;;;;26.62;17.08;;;7.80;99.90;;;;;;7310971;32;21965;-59
2022/04/26 05:41:21;;;;;;;27.00;16.52;;;7.80;99.90;;;;;;7319258;32;20644;-59
2022/04/26 05:45:25;;;;;;;23.00;15.38;;;7.80;99.90;;;;;;7321957;32;20130;-59
2022/04/26 05:49:26;;;;;;;22.20;14.18;;;7.70;99.90;;;;;;7319189;32;20162;-58
2022/04/26 05:53:29;;;;;;;21.08;14.87;;;7.70;99.90;;;;;;7323662;32;20253;-58
2022/04/26 05:57:31;;;;;;;20.88;14.63;;;7.70;99.90;;;;;;7318455;32;20265;-59
2022/04/26 06:01:33;;;;;;;20.92;14.70;;;7.60;99.90;;;;;;7312778;32;20233;-58
2022/04/26 06:05:34;;;;;;;24.67;14.65;;;7.60;99.90;;;;;;7312778;32;20199;-59
2022/04/26 06:09:37;;;;;;;19.73;13.62;;;7.60;99.90;;;;;;7314938;32;20126;-60
2022/04/26 06:13:39;;;;;;;22.15;14.73;;;7.60;99.90;;;;;;7316931;32;20088;-60
2022/04/26 06:17:41;;;;;;;22.67;14.68;;;7.60;99.90;;;;;;7321821;32;20198;-59
2022/04/26 06:21:42;;;;;;;21.87;14.10;;;7.80;99.90;;;;;;7324476;32;20103;-60
2022/04/26 06:25:44;;;;;;;19.77;13.43;;;7.70;99.90;;;;;;7323004;32;20096;-63
2022/04/26 06:29:46;;;;;;;22.48;14.85;;;7.80;99.90;;;;;;7316625;32;20126;-59
2022/04/26 06:33:47;;;;;;;24.95;16.08;;;7.80;99.90;;;;;;7323354;32;20103;-58
2022/04/26 06:37:49;;;;;;;24.05;15.82;;;7.90;99.90;;;;;;7321405;32;20100;-59
2022/04/26 06:41:51;;;;;;;20.67;15.38;;;8.00;99.90;;;;;;7318884;32;20753;-58
2022/04/26 06:45:52;;;;;;;24.80;16.33;;;8.00;99.90;;;;;;7314344;32;20126;-60
2022/04/26 06:49:54;;;;;;;26.85;18.35;;;7.90;99.90;;;;;;7319760;32;20119;-62
2022/04/26 06:53:56;;;;;;;25.48;17.73;;;7.80;99.90;;;;;;7320758;32;20229;-62
2022/04/26 06:57:58;;;;;;;33.08;22.45;;;7.80;99.90;;;;;;7318777;32;20126;-61
2022/04/26 07:01:59;;;;;;;36.10;21.98;;;7.80;99.90;;;;;;7320713;32;20141;-62
2022/04/26 07:06:01;;;;;;;29.48;20.73;;;7.80;99.90;;;;;;7318668;32;20208;-62
2022/04/26 07:10:03;;;;;;;35.03;23.50;;;7.90;99.90;;;;;;7320182;32;20556;-62
2022/04/26 07:14:05;;;;;;;35.35;23.42;;;8.00;99.90;;;;;;7319156;32;20158;-62
2022/04/26 07:18:07;;;;;;;39.40;24.87;;;8.10;99.90;;;;;;7312578;32;20095;-60
2022/04/26 07:22:10;;;;;;;39.65;25.83;;;8.20;99.90;;;;;;7313369;32;20234;-62
2022/04/26 07:26:11;;;;;;;43.97;28.83;;;8.10;99.90;;;;;;7313438;32;20190;-60
2022/04/26 07:30:13;;;;;;;43.90;30.75;;;8.10;99.90;;;;;;7305037;32;20191;-61
2022/04/26 07:34:20;;;;;;;46.53;29.37;;;8.20;99.90;;;;;;7316012;32;20215;-61
2022/04/26 07:38:22;;;;;;;;;;;8.20;99.90;;;;;;7310191;32;20126;-61
2022/04/26 07:42:24;;;;;;;52.90;32.40;;;8.30;99.90;;;;;;7313324;32;20142;-61
2022/04/26 07:46:26;;;;;;;61.58;38.45;;;8.20;99.90;;;;;;7314684;32;20129;-62
2022/04/26 07:50:29;;;;;;;74.97;44.42;;;8.30;99.90;;;;;;7315939;32;20174;-63
2022/04/26 07:54:31;;;;;;;78.82;49.58;;;8.40;99.90;;;;;;7312604;32;20650;-62
2022/04/26 07:58:32;;;;;;;78.55;49.40;;;8.40;99.90;;;;;;7310647;32;20547;-62
2022/04/26 08:02:35;;;;;;;75.40;48.90;;;8.40;99.90;;;;;;7319026;32;20498;-62
2022/04/26 08:06:37;;;;;;;78.55;50.95;;;8.50;99.90;;;;;;7315962;32;20095;-61
2022/04/26 08:10:39;;;;;;;70.62;49.35;;;8.60;99.90;;;;;;7320533;32;20225;-61
2022/04/26 08:14:41;;;;;;;79.03;52.08;;;8.70;99.90;;;;;;7322330;32;20241;-61
2022/04/26 08:18:42;;;;;;;75.65;51.97;;;8.80;99.90;;;;;;7315379;32;20103;-61
2022/04/26 08:22:44;;;;;;;71.87;49.47;;;8.80;99.90;;;;;;7310668;32;20794;-60
2022/04/26 08:31:06;;;;;;;58.67;45.30;;;9.10;99.90;;;;;;7313577;32;20207;-61
2022/04/26 08:35:11;;;;;;;64.82;45.40;;;9.00;99.90;;;;;;7314038;32;20106;-61
2022/04/26 08:39:12;;;;;;;59.08;41.37;;;9.10;99.90;;;;;;7310551;32;20218;-61
2022/04/26 08:43:14;;;;;;;58.80;39.33;;;9.10;99.90;;;;;;7315195;32;20734;-61
2022/04/26 08:51:36;;;;;;;56.08;39.75;;;9.10;99.90;;;;;;7312074;32;20247;-60
2022/04/26 08:55:50;;;;;;;62.80;44.17;;;9.10;99.90;;;;;;7314953;32;20108;-61
2022/04/26 08:59:52;;;;;;;62.15;43.33;;;9.00;99.90;;;;;;7313371;32;20689;-62
2022/04/26 09:03:56;;;;;;;54.08;39.13;;;9.10;99.90;;;;;;7308205;32;20182;-62
2022/04/26 09:07:58;;;;;;;50.70;36.55;;;9.20;99.90;;;;;;7312126;32;20120;-62
2022/04/26 09:12:01;;;;;;;51.30;35.50;;;9.40;99.90;;;;;;7309903;32;20225;-61
2022/04/26 09:16:06;;;;;;;36.45;28.75;;;9.70;99.90;;;;;;7314589;32;20130;-62
2022/04/26 09:20:09;;;;;;;34.95;28.10;;;9.90;99.90;;;;;;7314993;32;20115;-61
2022/04/26 09:24:12;;;;;;;36.95;28.73;;;9.90;99.90;;;;;;7314458;32;20129;-62
2022/04/26 09:28:29;;;;;;;35.35;28.20;;;9.90;99.90;;;;;;7311351;32;20108;-62
2022/04/26 09:32:47;;;;;;;35.67;28.95;;;9.90;99.90;;;;;;7313912;32;20656;-61
2022/04/26 09:36:50;;;;;;;;;;;9.90;99.90;;;;;;7314519;32;20294;-60
2022/04/26 09:41:00;;;;;;;41.47;31.33;;;9.90;99.90;;;;;;7314849;32;20672;-61
2022/04/26 09:45:09;;;;;;;36.22;28.75;;;10.10;99.90;;;;;;7312438;32;20232;-61
2022/04/26 09:49:14;;;;;;;39.97;32.45;;;10.50;99.90;;;;;;7314871;32;20752;-61
2022/04/26 09:53:15;;;;;;;38.20;33.15;;;10.30;99.90;;;;;;7315290;32;20122;-61
2022/04/26 09:57:20;;;;;;;42.22;35.50;;;10.40;99.90;;;;;;7314138;32;20198;-62
2022/04/26 10:01:41;;;;;;;44.30;38.10;;;10.60;99.90;;;;;;7315307;32;20188;-60
2022/04/26 10:05:45;;;;;;;51.17;42.30;;;10.50;99.90;;;;;;7315105;32;20109;-61
2022/04/26 10:09:49;;;;;;;45.08;40.17;;;10.70;99.90;;;;;;7313671;32;20104;-61
2022/04/26 10:13:51;;;;;;;47.95;41.45;;;10.60;99.90;;;;;;7308414;32;20122;-61
2022/04/26 10:17:55;;;;;;;41.13;36.70;;;10.60;99.90;;;;;;7308861;32;20111;-60
2022/04/26 10:21:56;;;;;;;42.88;33.72;;;10.70;99.90;;;;;;7313957;32;20454;-62
2022/04/26 10:26:23;;;;;;;38.80;34.10;;;10.80;99.90;;;;;;7312829;32;20221;-62
2022/04/26 10:30:47;;;;;;;35.92;31.87;;;11.00;99.90;;;;;;7313103;32;20470;-62
2022/04/26 10:34:49;;;;;;;34.20;30.40;;;11.20;99.90;;;;;;7315014;32;20519;-61
2022/04/26 10:39:06;;;;;;;35.70;31.62;;;11.70;99.90;;;;;;7314603;32;20095;-62
2022/04/26 10:43:08;;;;;;;34.95;31.25;;;12.10;99.90;;;;;;7319619;32;20100;-61
2022/04/26 10:47:09;;;;;;;32.58;29.17;;;12.40;99.90;;;;;;7308096;32;20217;-63
2022/04/26 10:51:36;;;;;;;30.98;26.15;;;12.90;99.90;;;;;;7317901;32;20623;-60
2022/04/26 10:55:38;;;;;;;27.73;25.03;;;12.80;99.90;;;;;;7305008;32;20210;-60
2022/04/26 10:59:45;;;;;;;28.77;25.73;;;12.90;99.90;;;;;;7306317;32;20586;-63
2022/04/26 11:03:55;;;;;;;26.73;23.83;;;12.90;99.90;;;;;;7309134;32;20426;-62
2022/04/26 11:07:57;;;;;;;27.67;22.55;;;12.90;99.90;;;;;;7308935;32;20590;-63
2022/04/26 11:11:58;;;;;;;26.62;23.67;;;12.70;99.90;;;;;;7316254;32;20172;-61
2022/04/26 11:16:13;;;;;;;25.08;22.58;;;12.90;99.90;;;;;;7316454;32;20172;-60
2022/04/26 11:20:18;;;;;;;28.38;21.35;;;13.00;99.90;;;;;;7308541;32;20112;-61
2022/04/26 11:28:40;;;;;;;23.35;20.02;;;12.70;99.90;;;;;;7314712;32;20130;-60
2022/04/26 11:32:45;;;;;;;23.00;20.67;;;12.80;99.90;;;;;;7311884;32;20194;-61
2022/04/26 11:36:47;;;;;;;21.98;18.98;;;12.90;99.90;;;;;;7316100;32;20522;-62
2022/04/26 11:40:54;;;;;;;20.62;17.90;;;13.10;99.90;;;;;;7315026;32;20730;-62
2022/04/26 11:44:58;;;;;;;24.70;18.75;;;12.90;99.90;;;;;;7315285;32;20206;-61
2022/04/26 11:49:00;;;;;;;19.65;17.55;;;13.00;99.90;;;;;;7314083;32;20640;-60
2022/04/26 11:53:11;;;;;;;22.00;17.83;;;12.90;99.90;;;;;;7314599;32;20131;-61
2022/04/26 11:57:20;;;;;;;23.08;17.90;;;13.00;99.90;;;;;;7314868;32;20211;-60
2022/04/26 12:01:21;;;;;;;21.98;18.65;;;13.00;99.90;;;;;;7308652;32;20888;-59
2022/04/26 12:05:24;;;;;;;23.70;18.95;;;13.10;99.90;;;;;;7313802;32;20198;-60
2022/04/26 12:09:26;;;;;;;21.35;18.62;;;13.00;99.90;;;;;;7312543;32;20454;-59
2022/04/26 12:13:30;;;;;;;23.20;20.05;;;13.20;99.90;;;;;;7316529;32;20249;-59
2022/04/26 12:17:32;;;;;;;29.77;19.95;;;13.60;99.90;;;;;;7309231;32;20683;-60
2022/04/26 12:21:47;;;;;;;22.05;19.70;;;14.10;99.90;;;;;;7318488;32;20107;-62
2022/04/26 12:26:10;;;;;;;21.15;18.92;;;14.90;99.90;;;;;;7316254;32;20104;-60
2022/04/26 12:30:12;;;;;;;21.35;19.17;;;14.40;99.90;;;;;;7311417;32;20867;-60
2022/04/26 12:34:22;;;;;;;24.20;20.37;;;14.00;99.90;;;;;;7314612;32;20748;-61
2022/04/26 12:38:23;;;;;;;27.77;21.27;;;13.30;99.90;;;;;;7309448;32;20142;-61
2022/04/26 12:42:28;;;;;;;27.23;20.35;;;12.80;99.90;;;;;;7304893;32;20126;-59
2022/04/26 12:46:44;;;;;;;27.17;22.23;;;12.30;99.90;;;;;;7311771;32;20210;-61
2022/04/26 12:50:46;;;;;;;22.70;20.35;;;12.30;99.90;;;;;;7311225;32;20682;-62
2022/04/26 12:54:58;;;;;;;24.23;20.90;;;12.10;99.90;;;;;;7312488;32;20115;-62
2022/04/26 12:58:59;;;;;;;22.48;20.05;;;11.90;99.90;;;;;;7307872;32;20123;-61
2022/04/26 13:03:05;;;;;;;22.17;19.27;;;12.00;99.90;;;;;;7312286;32;20125;-62
2022/04/26 13:07:07;;;;;;;23.20;20.52;;;12.10;99.90;;;;;;7306364;32;20252;-61
2022/04/26 13:11:10;;;;;;;22.92;20.52;;;12.20;99.90;;;;;;7314914;32;20144;-63
2022/04/26 13:15:15;;;;;;;23.17;20.58;;;12.20;99.90;;;;;;7311620;32;20175;-61
2022/04/26 13:19:17;;;;;;;25.83;20.02;;;12.30;99.90;;;;;;7313169;32;20115;-61
2022/04/26 13:23:18;;;;;;;25.65;19.77;;;12.40;99.90;;;;;;7298022;32;21339;-62
2022/04/26 13:27:20;;;;;;;23.70;19.80;;;12.40;99.90;;;;;;7306297;32;20571;-64
2022/04/26 13:31:22;;;;;;;22.83;18.77;;;12.60;99.90;;;;;;7311846;32;20195;-62
2022/04/26 13:35:25;;;;;;;21.20;19.00;;;12.60;99.90;;;;;;7312764;32;20520;-62
2022/04/26 13:39:26;;;;;;;22.08;18.73;;;12.60;99.90;;;;;;7310963;32;20104;-61
2022/04/26 13:43:28;;;;;;;22.50;17.42;;;12.70;99.90;;;;;;7312572;32;20316;-62
2022/04/26 13:47:49;;;;;;;23.92;16.67;;;13.10;99.90;;;;;;7311741;32;20206;-61
2022/04/26 13:51:51;;;;;;;16.10;13.85;;;13.80;99.90;;;;;;7309031;32;20120;-61
2022/04/26 13:55:53;;;;;;;15.07;13.43;;;14.20;99.90;;;;;;7310578;32;20921;-61
2022/04/26 13:59:54;;;;;;;14.77;13.15;;;14.00;99.90;;;;;;7311341;32;20522;-61
2022/04/26 14:03:56;;;;;;;15.65;12.20;;;14.00;99.90;;;;;;7312086;32;20428;-61
2022/04/26 14:07:58;;;;;;;15.23;11.77;;;13.80;99.90;;;;;;7314898;32;20334;-63
2022/04/26 14:12:00;;;;;;;17.92;13.60;;;13.70;99.90;;;;;;7307421;32;20769;-62
2022/04/26 14:24:43;;;;;;;12.23;10.32;;;13.50;99.90;;;;;;7315277;32;20212;-60
2022/04/26 14:28:45;;;;;;;12.37;9.63;;;13.70;99.90;;;;;;7315599;32;20122;-61
2022/04/26 14:32:48;;;;;;;11.20;9.35;;;13.80;99.90;;;;;;7322964;32;20549;-61
2022/04/26 14:36:50;;;;;;;11.15;8.85;;;14.00;99.90;;;;;;7315247;32;20123;-61
2022/04/26 14:40:56;;;;;;;12.02;9.52;;;14.30;99.90;;;;;;7321690;32;20104;-62
2022/04/26 14:44:58;;;;;;;12.35;9.63;;;14.10;99.90;;;;;;7322874;32;20099;-62
2022/04/26 14:49:00;;;;;;;12.85;9.10;;;14.20;99.90;;;;;;7319376;32;20292;-61
2022/04/26 14:53:02;;;;;;;14.10;9.55;;;14.00;99.90;;;;;;7316717;32;20277;-62
2022/04/26 14:57:24;;;;;;;14.15;9.48;;;14.00;99.90;;;;;;7314072;32;20115;-61
2022/04/26 15:01:29;;;;;;;10.20;9.00;;;13.80;99.90;;;;;;7317169;32;20154;-62
2022/04/26 15:05:31;;;;;;;15.23;9.35;;;13.60;99.90;;;;;;7315544;32;20666;-62
2022/04/26 15:09:42;;;;;;;19.75;14.20;;;13.30;99.90;;;;;;7311131;32;20199;-62
2022/04/26 15:18:05;;;;;;;20.48;16.23;;;12.70;99.90;;;;;;7314566;32;20553;-63
2022/04/26 15:22:06;;;;;;;18.52;16.20;;;12.70;99.90;;;;;;7315386;32;20126;-61
2022/04/26 15:26:10;;;;;;;18.23;14.65;;;12.90;99.90;;;;;;7321124;32;20343;-62
2022/04/26 15:30:12;;;;;;;22.73;16.20;;;13.10;99.90;;;;;;7325175;32;20483;-62
2022/04/26 15:34:13;;;;;;;16.15;13.68;;;13.20;99.90;;;;;;7322257;32;20218;-61
2022/04/26 15:38:15;;;;;;;14.65;10.98;;;13.10;99.90;;;;;;7314279;32;20551;-61
2022/04/26 15:42:18;;;;;;;14.80;11.52;;;13.10;99.90;;;;;;7317491;32;20103;-60
2022/04/26 15:46:19;;;;;;;13.52;11.65;;;13.10;99.90;;;;;;7318375;32;20135;-61
2022/04/26 15:50:21;;;;;;;17.15;13.13;;;12.90;99.90;;;;;;7314660;32;20100;-62
2022/04/26 15:54:23;;;;;;;17.25;11.35;;;12.90;99.90;;;;;;7319913;32;20178;-61
2022/04/26 15:58:25;;;;;;;15.18;9.88;;;12.90;99.90;;;;;;7322452;32;20587;-61
2022/04/26 16:02:27;;;;;;;9.55;7.55;;;13.00;99.90;;;;;;7323059;32;20182;-63
2022/04/26 16:06:28;;;;;;;9.02;6.70;;;13.20;99.90;;;;;;7321853;32;20119;-61
2022/04/26 16:23:31;;;;;;;7.22;5.62;;;12.90;99.90;;;;;;7320003;32;20122;-61
2022/04/26 16:27:33;;;;;;;9.15;6.57;;;12.80;99.90;;;;;;7321920;32;20181;-61
2022/04/26 16:31:35;;;;;;;11.23;7.05;;;12.70;99.90;;;;;;7322368;32;20100;-62
2022/04/26 16:35:36;;;;;;;13.45;9.45;;;12.40;99.90;;;;;;7320490;32;20586;-61
2022/04/26 16:39:38;;;;;;;9.90;6.80;;;12.40;99.90;;;;;;7321801;32;20222;-61
2022/04/26 16:43:40;;;;;;;8.95;6.20;;;12.30;99.90;;;;;;7322303;32;20612;-62
2022/04/26 16:47:42;;;;;;;9.68;5.87;;;12.30;99.90;;;;;;7320614;32;20237;-62
2022/04/26 16:51:43;;;;;;;8.38;6.15;;;12.40;99.90;;;;;;7317697;32;20194;-61
2022/04/26 16:55:46;;;;;;;9.93;6.35;;;12.50;99.90;;;;;;7319645;32;20118;-61
2022/04/26 16:59:48;;;;;;;12.70;9.38;;;12.50;99.90;;;;;;7321316;32;20252;-61
2022/04/26 17:03:53;;;;;;;14.93;10.90;;;12.50;99.90;;;;;;7320778;32;20676;-62
2022/04/26 17:07:56;;;;;;;22.05;17.58;;;12.40;99.90;;;;;;7318859;32;20104;-61
2022/04/26 17:11:58;;;;;;;23.77;18.40;;;12.30;99.90;;;;;;7316492;32;20198;-61
2022/04/26 17:15:59;;;;;;;22.77;20.12;;;12.10;99.90;;;;;;7312043;32;21167;-60
2022/04/26 17:20:02;;;;;;;30.12;20.35;;;12.20;99.90;;;;;;7309089;32;20151;-62
2022/04/26 17:25:13;;;;;;;22.98;19.33;;;12.00;99.90;;;;;;7320614;32;20187;-63
2022/04/26 17:28:26;;;;;;;21.70;19.37;;;11.90;99.90;;;;;;7313159;32;21459;-61
2022/04/26 17:32:28;;;;;;;20.30;17.35;;;11.90;99.90;;;;;;7325785;32;20107;-60
2022/04/26 17:36:30;;;;;;;22.08;18.17;;;11.80;99.90;;;;;;7318511;32;20163;-60
2022/04/26 17:40:33;;;;;;;25.35;18.45;;;11.80;99.90;;;;;;7315308;32;20118;-65
2022/04/26 17:44:35;;;;;;;20.62;17.80;;;11.80;99.90;;;;;;7313240;32;20209;-61
2022/04/26 17:48:38;;;;;;;21.10;16.83;;;11.90;99.90;;;;;;7311584;32;20183;-60
2022/04/26 17:57:00;;;;;;;18.67;15.25;;;12.00;99.90;;;;;;7318861;32;20756;-61
2022/04/26 18:01:02;;;;;;;18.20;15.55;;;12.00;99.90;;;;;;7319516;32;20260;-63
2022/04/26 18:05:05;;;;;;;15.32;12.73;;;12.10;99.90;;;;;;7318050;32;20186;-62
2022/04/26 18:09:06;;;;;;;13.95;12.32;;;12.20;99.90;;;;;;7319102;32;20099;-62
2022/04/26 18:13:08;;;;;;;15.38;12.95;;;12.20;99.90;;;;;;7324917;32;20139;-62
2022/04/26 18:17:10;;;;;;;15.35;13.75;;;12.10;99.90;;;;;;7315374;32;20121;-61
2022/04/26 18:21:12;;;;;;;18.80;13.15;;;12.00;99.90;;;;;;7316218;32;20480;-61
2022/04/26 18:25:13;;;;;;;18.08;13.65;;;11.90;99.90;;;;;;7320281;32;20122;-61
2022/04/26 18:29:19;;;;;;;13.80;12.18;;;11.80;99.90;;;;;;7320160;32;20142;-64
2022/04/26 18:33:21;;;;;;;14.65;12.50;;;11.70;99.90;;;;;;7312938;32;20088;-63
2022/04/26 18:37:23;;;;;;;15.85;11.43;;;11.60;99.90;;;;;;7319786;32;20130;-63
2022/04/26 18:41:27;;;;;;;13.10;11.60;;;11.50;99.90;;;;;;7321194;32;20209;-62
2022/04/26 18:45:29;;;;;;;13.45;11.48;;;11.40;99.90;;;;;;7314888;32;20496;-63
2022/04/26 18:49:33;;;;;;;13.02;11.63;;;11.30;99.90;;;;;;7320807;32;20563;-63
2022/04/26 18:53:36;;;;;;;15.85;12.73;;;11.20;99.90;;;;;;7320356;32;20207;-64
2022/04/26 18:57:38;;;;;;;12.88;11.65;;;11.10;99.90;;;;;;7319695;32;20108;-62
2022/04/26 19:01:39;;;;;;;17.02;12.95;;;10.90;99.90;;;;;;7323589;32;20126;-63
2022/04/26 19:05:41;;;;;;;18.20;13.80;;;10.80;99.90;;;;;;7325952;32;20133;-63
2022/04/26 19:14:04;;;;;;;19.77;14.63;;;10.50;99.90;;;;;;7322867;32;20459;-64
2022/04/26 19:18:05;;;;;;;17.42;13.48;;;10.40;99.90;;;;;;7320478;32;20217;-61
2022/04/26 19:22:07;;;;;;;19.12;15.20;;;10.20;99.90;;;;;;7329779;32;20473;-61
2022/04/26 19:26:09;;;;;;;17.05;15.20;;;10.00;99.90;;;;;;7316803;32;21885;-61
2022/04/26 19:30:11;;;;;;;18.50;15.38;;;10.00;99.90;;;;;;7315335;32;20127;-63
2022/04/26 19:34:13;;;;;;;19.45;16.33;;;9.90;99.90;;;;;;7322038;32;20131;-63
2022/04/26 19:38:20;;;;;;;18.98;16.92;;;9.80;99.90;;;;;;7321999;32;20100;-62
2022/04/26 19:42:22;;;;;;;17.87;14.70;;;9.80;99.90;;;;;;7318912;32;20135;-61
2022/04/26 19:46:24;;;;;;;18.58;14.87;;;9.70;99.90;;;;;;7315384;32;20104;-59
2022/04/26 19:54:46;;;;;;;20.35;17.48;;;9.70;99.90;;;;;;7312486;32;20190;-62
2022/04/26 19:58:47;;;;;;;19.95;17.27;;;9.70;99.90;;;;;;7313229;32;20104;-64
2022/04/26 20:02:49;;;;;;;17.75;15.90;;;9.70;99.90;;;;;;7319444;32;20543;-61
2022/04/26 20:06:51;;;;;;;21.75;14.38;;;9.70;99.90;;;;;;7322721;32;20123;-63
2022/04/26 20:10:53;;;;;;;12.98;11.18;;;9.80;99.90;;;;;;7320911;32;20130;-63
2022/04/26 20:14:55;;;;;;;10.90;7.95;;;9.80;99.90;;;;;;7319775;32;20127;-63
2022/04/26 20:18:57;;;;;;;15.40;7.37;;;9.80;99.90;;;;;;7302075;32;20104;-63
2022/04/26 20:22:58;;;;;;;8.05;5.70;;;9.80;99.90;;;;;;7321329;32;20132;-61
2022/04/26 20:31:20;;;;;;;6.25;4.47;;;9.80;99.90;;;;;;7317614;32;20250;-61
2022/04/26 20:35:22;;;;;;;6.37;4.15;;;9.90;99.90;;;;;;7311935;32;20194;-62
2022/04/26 20:39:24;;;;;;;9.98;3.50;;;9.80;99.90;;;;;;7317181;32;20100;-61
2022/04/26 20:43:25;;;;;;;6.75;3.70;;;9.80;99.90;;;;;;7321634;32;20300;-61
2022/04/26 20:47:27;;;;;;;9.13;3.67;;;9.80;99.90;;;;;;7320152;32;20273;-61
2022/04/26 20:51:29;;;;;;;7.15;3.37;;;9.70;99.90;;;;;;7319405;32;20196;-62
2022/04/26 20:55:31;;;;;;;5.05;3.65;;;9.70;99.90;;;;;;7314111;32;20561;-60
2022/04/26 20:59:33;;;;;;;8.05;3.55;;;9.60;99.90;;;;;;7321804;32;20130;-60
2022/04/26 21:03:35;;;;;;;5.57;3.87;;;9.60;99.90;;;;;;7321283;32;20179;-61
2022/04/26 21:07:36;;;;;;;8.50;4.10;;;9.50;99.90;;;;;;7315812;32;20440;-61
2022/04/26 21:11:38;;;;;;;4.82;3.30;;;9.50;99.90;;;;;;7318473;32;20214;-61
2022/04/26 21:15:40;;;;;;;10.80;4.05;;;9.40;99.90;;;;;;7319618;32;20504;-60
2022/04/26 21:19:42;;;;;;;9.57;3.78;;;9.40;99.90;;;;;;7323318;32;20485;-60
2022/04/26 21:23:43;;;;;;;6.45;3.83;;;9.30;99.90;;;;;;7308327;32;20103;-60
2022/04/26 21:27:45;;;;;;;5.87;3.53;;;9.10;99.90;;;;;;7320577;32;20186;-61
2022/04/26 21:31:47;;;;;;;4.85;3.40;;;9.10;99.90;;;;;;7318659;32;20481;-60
2022/04/26 21:35:49;;;;;;;5.18;3.95;;;9.10;99.90;;;;;;7319691;32;20249;-60
2022/04/26 21:39:50;;;;;;;6.28;4.15;;;9.00;99.90;;;;;;7316871;32;20210;-61
2022/04/26 21:43:52;;;;;;;6.62;4.20;;;9.00;99.90;;;;;;7313435;32;20114;-59
2022/04/26 21:47:57;;;;;;;5.45;4.30;;;8.80;99.90;;;;;;7315235;32;20127;-59
2022/04/26 21:51:59;;;;;;;8.98;4.03;;;8.70;99.90;;;;;;7309034;32;20565;-60
2022/04/26 21:56:01;;;;;;;9.90;4.55;;;8.60;99.90;;;;;;7313362;32;20223;-59
2022/04/26 22:00:19;;;;;;;11.77;4.50;;;8.50;99.90;;;;;;7318152;32;20107;-59
2022/04/26 22:04:21;;;;;;;9.75;5.10;;;8.40;99.90;;;;;;7316543;32;20150;-60
2022/04/26 22:08:23;;;;;;;13.30;5.12;;;8.30;99.90;;;;;;7321462;32;20162;-59
2022/04/26 22:12:26;;;;;;;13.23;5.90;;;8.20;99.90;;;;;;7318628;32;20122;-60
2022/04/26 22:16:27;;;;;;;13.82;5.55;;;8.10;99.90;;;;;;7310724;32;20121;-59
2022/04/26 22:20:41;;;;;;;11.40;6.18;;;8.00;99.90;;;;;;7319819;32;20100;-59
2022/04/26 22:24:43;;;;;;;11.73;6.75;;;7.90;99.90;;;;;;7317815;32;20183;-59
2022/04/26 22:28:45;;;;;;;13.20;6.22;;;7.90;99.90;;;;;;7323789;32;20122;-60
2022/04/26 22:32:46;;;;;;;10.73;5.60;;;7.80;99.90;;;;;;7319871;32;20246;-60
2022/04/26 22:36:48;;;;;;;9.27;5.57;;;7.70;99.90;;;;;;7322713;32;20104;-59
2022/04/26 22:40:50;;;;;;;9.68;6.25;;;7.70;99.90;;;;;;7322210;32;20514;-60
2022/04/26 22:44:52;;;;;;;8.30;5.40;;;7.50;99.90;;;;;;7310409;32;21703;-59
2022/04/26 22:48:54;;;;;;;12.57;6.82;;;7.50;99.90;;;;;;7320225;32;20557;-59
2022/04/26 22:52:55;;;;;;;9.38;6.05;;;7.40;99.90;;;;;;7315978;32;20118;-59
2022/04/26 22:56:57;;;;;;;12.20;6.22;;;7.30;99.90;;;;;;7322772;32;20115;-59
2022/04/26 23:01:01;;;;;;;9.80;6.30;;;7.20;99.90;;;;;;7320305;32;20122;-58
2022/04/26 23:05:04;;;;;;;12.27;6.60;;;7.10;99.90;;;;;;7320846;32;20099;-60
2022/04/26 23:09:07;;;;;;;13.77;6.75;;;7.00;99.90;;;;;;7323558;32;20130;-61
2022/04/26 23:13:09;;;;;;;12.23;6.80;;;6.80;99.90;;;;;;7321565;32;20205;-59
2022/04/26 23:17:11;;;;;;;11.10;6.50;;;6.70;99.90;;;;;;7321694;32;20103;-59
2022/04/26 23:21:13;;;;;;;10.23;6.47;;;6.70;99.90;;;;;;7323787;32;20122;-59
2022/04/26 23:25:15;;;;;;;12.00;6.55;;;6.60;99.90;;;;;;7319314;32;20099;-59
2022/04/26 23:29:17;;;;;;;13.18;7.47;;;6.50;99.90;;;;;;7323526;32;20698;-60
2022/04/26 23:33:19;;;;;;;9.77;6.80;;;6.40;99.90;;;;;;7318502;32;20145;-59
2022/04/26 23:37:21;;;;;;;9.50;7.03;;;6.30;99.90;;;;;;7327897;32;20129;-59
2022/04/26 23:41:22;;;;;;;12.02;7.25;;;6.40;99.90;;;;;;7315850;32;20097;-59
2022/04/26 23:45:25;;;;;;;8.52;6.22;;;6.40;99.90;;;;;;7302660;32;20226;-59
2022/04/26 23:49:26;;;;;;;8.40;5.72;;;6.20;99.90;;;;;;7320000;32;20178;-59
2022/04/26 23:53:28;;;;;;;11.50;6.32;;;6.20;99.90;;;;;;7320361;32;20189;-59
2022/04/26 23:57:29;;;;;;;10.95;6.05;;;6.20;99.90;;;;;;7317454;32;20092;-59
